Time;durP1;ratioP1;P1;durP2;ratioP2;P2;SDS_P1;SDS_P2;PMS_P1;PMS_P2;Temp;Humidity;BMP_temperature;BMP_pressure;BME280_temperature;BME280_humidity;BME280_pressure;Samples;Min_cycle;Max_cycle;Signal;HPM_P1;HPM_P2
2023/08/05 00:00:04;;;;;;;4.85;2.92;;;;;;;13.22;100.00;100809.16;4951789;29;20491;-58
2023/08/05 00:02:30;;;;;;;8.30;3.05;;;;;;;13.21;100.00;100815.53;4950886;29;20502;-59
2023/08/05 00:04:57;;;;;;;5.82;2.85;;;;;;;13.21;100.00;100812.84;4951295;29;20566;-58
2023/08/05 00:07:23;;;;;;;14.77;3.25;;;;;;;13.18;100.00;100805.13;4951475;29;20102;-58
2023/08/05 00:09:50;;;;;;;7.40;2.80;;;;;;;13.18;100.00;100824.00;4951008;29;20150;-59
2023/08/05 00:12:17;;;;;;;10.05;3.08;;;;;;;13.12;100.00;100816.59;4951467;29;20404;-58
2023/08/05 00:14:44;;;;;;;7.25;3.05;;;;;;;13.08;100.00;100828.75;4951542;29;20043;-59
2023/08/05 00:17:11;;;;;;;5.78;2.70;;;;;;;13.08;100.00;100826.06;4950849;29;20051;-58
2023/08/05 00:19:37;;;;;;;12.27;2.83;;;;;;;13.06;100.00;100836.16;4950970;29;20058;-58
2023/08/05 00:22:04;;;;;;;4.68;2.47;;;;;;;13.07;100.00;100835.13;4951491;29;20139;-58
2023/08/05 00:24:31;;;;;;;7.85;2.90;;;;;;;13.05;100.00;100823.69;4950325;29;20051;-58
2023/08/05 00:26:57;;;;;;;7.63;2.70;;;;;;;12.99;100.00;100827.09;4949943;29;20102;-58
2023/08/05 00:29:24;;;;;;;7.57;2.70;;;;;;;12.98;100.00;100830.78;4950213;29;20050;-58
2023/08/05 00:31:50;;;;;;;6.43;2.67;;;;;;;12.99;100.00;100832.47;4950581;29;20483;-58
2023/08/05 00:34:17;;;;;;;9.55;2.60;;;;;;;12.98;100.00;100836.19;4951089;29;20126;-58
2023/08/05 00:36:43;;;;;;;5.63;2.72;;;;;;;12.97;100.00;100829.09;4950260;29;20051;-57
2023/08/05 00:39:10;;;;;;;5.07;2.30;;;;;;;12.94;100.00;100834.81;4939871;28;20103;-59
2023/08/05 00:41:36;;;;;;;4.35;2.63;;;;;;;12.91;100.00;100824.44;4934817;28;20389;-58
2023/08/05 00:44:03;;;;;;;8.75;2.58;;;;;;;12.88;100.00;100831.81;4935999;28;20519;-58
2023/08/05 00:46:29;;;;;;;6.05;2.80;;;;;;;12.85;100.00;100839.41;4936062;28;20056;-58
2023/08/05 00:48:56;;;;;;;7.10;2.20;;;;;;;12.81;100.00;100830.84;4935908;28;20047;-59
2023/08/05 00:51:23;;;;;;;4.78;2.65;;;;;;;12.79;100.00;100827.47;4935649;28;20055;-58
2023/08/05 00:53:50;;;;;;;6.53;2.50;;;;;;;12.77;100.00;100824.13;4935921;28;20075;-58
2023/08/05 00:56:17;;;;;;;6.93;2.42;;;;;;;12.77;100.00;100829.50;4936034;28;20056;-58
2023/08/05 00:58:44;;;;;;;7.30;2.42;;;;;;;12.73;100.00;100828.13;4935953;28;20051;-58
2023/08/05 01:01:11;;;;;;;7.05;2.72;;;;;;;12.72;100.00;100821.06;4936410;28;20078;-56
2023/08/05 01:03:38;;;;;;;4.30;2.88;;;;;;;12.70;100.00;100836.56;4936519;28;20058;-56
2023/08/05 01:09:53;;;;;;;8.20;2.85;;;;;;;12.61;100.00;100826.81;4935723;28;20050;-57
2023/08/05 01:12:19;;;;;;;4.38;2.63;;;;;;;12.59;100.00;100820.75;4936479;28;20110;-57
2023/08/05 01:14:47;;;;;;;10.88;2.70;;;;;;;12.57;100.00;100818.25;4936197;28;20111;-56
2023/08/05 01:17:14;;;;;;;6.80;3.00;;;;;;;12.58;100.00;100821.75;4935593;28;20471;-58
2023/08/05 01:19:42;;;;;;;5.70;3.08;;;;;;;12.60;100.00;100809.00;4935191;28;20073;-58
2023/08/05 01:22:30;;;;;;;7.50;3.20;;;;;;;12.54;100.00;100815.88;4935954;29;20052;-57
2023/08/05 01:25:06;;;;;;;8.63;2.58;;;;;;;12.52;100.00;100808.97;4934707;29;20165;-57
2023/08/05 01:27:34;;;;;;;5.95;2.75;;;;;;;12.50;100.00;100811.03;4935161;29;20059;-57
2023/08/05 01:30:01;;;;;;;8.68;2.75;;;;;;;12.51;100.00;100815.38;4934722;29;20411;-57
2023/08/05 01:32:27;;;;;;;6.35;2.95;;;;;;;12.48;100.00;100813.88;4935085;29;20047;-56
2023/08/05 01:34:54;;;;;;;6.70;2.70;;;;;;;12.50;100.00;100805.63;4934709;29;20055;-55
2023/08/05 01:37:21;;;;;;;4.93;2.60;;;;;;;12.46;100.00;100809.69;4935622;29;20048;-57
2023/08/05 01:39:47;;;;;;;5.55;2.95;;;;;;;12.46;100.00;100804.31;4935560;28;20051;-56
2023/08/05 01:42:14;;;;;;;3.88;2.78;;;;;;;12.45;100.00;100803.44;4935534;28;20488;-57
2023/08/05 01:44:40;;;;;;;5.60;2.40;;;;;;;12.45;100.00;100799.91;4935057;28;20051;-56
2023/08/05 01:47:08;;;;;;;4.88;2.45;;;;;;;12.42;100.00;100806.50;4935146;28;20055;-56
2023/08/05 01:49:35;;;;;;;7.20;3.13;;;;;;;12.45;100.00;100802.59;4934985;28;20071;-57
2023/08/05 01:52:02;;;;;;;4.03;2.15;;;;;;;12.45;100.00;100808.81;4933956;28;20055;-56
2023/08/05 01:54:29;;;;;;;4.65;2.67;;;;;;;12.45;100.00;100808.81;4934944;28;20174;-57
2023/08/05 01:56:55;;;;;;;8.07;2.67;;;;;;;12.45;100.00;100803.44;4934643;28;20098;-57
2023/08/05 01:59:22;;;;;;;6.65;2.30;;;;;;;12.43;100.00;100804.66;4934869;28;20043;-58
2023/08/05 02:01:48;;;;;;;7.93;2.88;;;;;;;12.45;100.00;100802.59;4935474;28;20420;-56
2023/08/05 02:04:16;;;;;;;6.72;3.20;;;;;;;12.42;100.00;100803.81;4949919;28;20054;-58
2023/08/05 02:06:43;;;;;;;7.53;2.65;;;;;;;12.38;100.00;100803.31;4952967;29;20409;-58
2023/08/05 02:09:09;;;;;;;8.68;3.00;;;;;;;12.40;100.00;100803.97;4952903;29;20055;-59
2023/08/05 02:11:36;;;;;;;6.50;2.50;;;;;;;12.39;100.00;100801.47;4952568;29;20106;-59
2023/08/05 02:14:02;;;;;;;6.72;2.78;;;;;;;12.42;100.00;100811.88;4952777;29;20099;-58
2023/08/05 02:16:32;;;;;;;8.90;2.60;;;;;;;12.36;100.00;100810.69;4952881;29;20051;-58
2023/08/05 02:18:59;;;;;;;8.40;2.38;;;;;;;12.35;100.00;100809.03;4952687;29;20409;-58
2023/08/05 02:21:25;;;;;;;7.50;2.60;;;;;;;12.31;100.00;100813.03;4951678;29;20405;-59
2023/08/05 02:23:52;;;;;;;4.18;2.45;;;;;;;12.27;100.00;100811.72;4950369;29;21118;-59
2023/08/05 02:26:19;;;;;;;8.98;2.63;;;;;;;12.25;100.00;100808.38;4934903;29;20048;-59
2023/08/05 02:28:46;;;;;;;5.25;2.42;;;;;;;12.25;100.00;100802.16;4933837;29;20095;-58
2023/08/05 02:31:14;;;;;;;4.97;2.33;;;;;;;12.26;100.00;100810.03;4933014;29;20047;-58
2023/08/05 02:33:41;;;;;;;7.57;3.20;;;;;;;12.21;100.00;100817.78;4933880;29;20095;-58
2023/08/05 02:36:08;;;;;;;9.93;3.15;;;;;;;12.22;100.00;100819.44;4933663;29;20048;-58
2023/08/05 02:38:34;;;;;;;5.38;2.72;;;;;;;12.22;100.00;100818.63;4933793;28;20507;-59
2023/08/05 02:41:05;;;;;;;7.57;2.90;;;;;;;12.17;100.00;100827.16;4933339;28;20480;-58
2023/08/05 02:43:31;;;;;;;9.30;3.45;;;;;;;12.12;100.00;100830.38;4933771;28;20051;-58
2023/08/05 02:45:58;;;;;;;4.97;2.63;;;;;;;12.10;100.00;100835.06;4933915;28;20133;-59
2023/08/05 02:48:25;;;;;;;6.68;2.47;;;;;;;12.09;100.00;100832.56;4933822;28;20047;-58
2023/08/05 02:50:53;;;;;;;4.78;3.15;;;;;;;12.08;100.00;100828.19;4934095;28;20099;-58
2023/08/05 02:53:20;;;;;;;9.50;2.97;;;;;;;12.04;100.00;100829.53;4933883;28;20051;-59
2023/08/05 02:55:47;;;;;;;6.47;2.47;;;;;;;12.06;100.00;100825.66;4933424;28;20058;-59
2023/08/05 02:58:16;;;;;;;6.80;3.35;;;;;;;12.06;100.00;100819.44;4933531;28;20043;-59
2023/08/05 03:00:43;;;;;;;7.20;2.72;;;;;;;12.05;100.00;100824.00;4933720;28;20051;-59
2023/08/05 03:03:10;;;;;;;7.80;3.00;;;;;;;12.02;100.00;100829.69;4933533;28;20401;-59
2023/08/05 03:05:37;;;;;;;5.82;2.60;;;;;;;12.01;100.00;100841.47;4933072;28;20052;-58
2023/08/05 03:08:04;;;;;;;8.07;3.17;;;;;;;11.99;100.00;100840.78;4933743;28;20063;-58
2023/08/05 03:10:30;;;;;;;6.10;2.97;;;;;;;11.96;100.00;100834.91;4933538;28;20111;-60
2023/08/05 03:12:57;;;;;;;7.03;3.30;;;;;;;11.95;100.00;100836.75;4933233;28;20051;-59
2023/08/05 03:15:27;;;;;;;14.25;3.35;;;;;;;11.90;100.00;100844.50;4933754;28;20112;-62
2023/08/05 03:17:54;;;;;;;7.15;3.35;;;;;;;11.89;100.00;100846.31;4932019;28;20040;-63
2023/08/05 03:20:28;;;;;;;5.53;3.00;;;;;;;11.88;100.00;100833.03;4933423;28;20416;-63
2023/08/05 03:22:56;;;;;;;5.18;3.45;;;;;;;11.86;100.00;100826.97;4932512;28;20095;-61
2023/08/05 03:25:26;;;;;;;9.85;3.83;;;;;;;11.86;100.00;100825.16;4932557;28;20436;-60
2023/08/05 03:27:53;;;;;;;6.82;3.20;;;;;;;11.83;100.00;100830.88;4932774;28;20496;-64
2023/08/05 03:30:20;;;;;;;5.88;3.20;;;;;;;11.80;100.00;100814.22;4932709;28;20047;-63
2023/08/05 03:32:47;;;;;;;8.40;3.40;;;;;;;11.79;100.00;100810.66;4931825;28;20091;-63
2023/08/05 03:35:14;;;;;;;6.28;3.63;;;;;;;11.78;100.00;100811.69;4932632;28;20051;-64
2023/08/05 03:37:41;;;;;;;6.00;3.33;;;;;;;11.78;100.00;100817.06;4944512;28;20109;-63
2023/08/05 03:40:08;;;;;;;7.00;3.38;;;;;;;11.76;100.00;100810.16;4933149;28;20044;-63
2023/08/05 03:42:34;;;;;;;12.70;3.75;;;;;;;11.77;100.00;100817.25;4932905;28;20039;-63
2023/08/05 03:45:01;;;;;;;7.40;3.42;;;;;;;11.67;100.00;100818.22;4932563;28;20574;-62
2023/08/05 03:47:28;;;;;;;11.05;3.75;;;;;;;11.67;100.00;100817.38;4913623;29;20051;-61
2023/08/05 03:49:54;;;;;;;6.97;3.22;;;;;;;11.72;100.00;100816.88;4913470;29;20127;-61
2023/08/05 03:52:21;;;;;;;6.72;3.28;;;;;;;11.68;100.00;100817.22;4942830;29;20051;-62
2023/08/05 03:54:48;;;;;;;8.23;3.40;;;;;;;11.61;100.00;100823.38;4951818;29;20067;-62
2023/08/05 03:57:15;;;;;;;5.57;3.17;;;;;;;11.59;100.00;100820.03;4950801;29;20125;-62
2023/08/05 03:59:41;;;;;;;7.97;3.50;;;;;;;11.61;100.00;100815.31;4933897;29;20103;-62
2023/08/05 04:02:08;;;;;;;9.68;4.55;;;;;;;11.58;100.00;100810.28;4931918;29;20515;-62
2023/08/05 04:04:34;;;;;;;8.90;3.83;;;;;;;11.61;100.00;100816.16;4931532;29;20051;-63
2023/08/05 04:07:01;;;;;;;5.97;3.53;;;;;;;11.60;100.00;100821.72;4931640;29;20468;-63
2023/08/05 04:09:28;;;;;;;11.63;3.97;;;;;;;11.64;100.00;100825.75;4932135;29;20479;-61
2023/08/05 04:11:57;;;;;;;8.32;3.67;;;;;;;11.72;100.00;100817.72;4931105;29;20044;-63
2023/08/05 04:14:24;;;;;;;9.80;3.75;;;;;;;11.68;100.00;100825.28;4931927;29;20052;-63
2023/08/05 04:16:54;;;;;;;11.77;3.92;;;;;;;11.71;100.00;100816.06;4938240;29;20107;-62
2023/08/05 04:19:25;;;;;;;11.80;4.25;;;;;;;11.77;100.00;100820.78;4937615;29;20047;-63
2023/08/05 04:21:52;;;;;;;9.05;4.78;;;;;;;11.75;100.00;100819.25;4937432;29;20044;-60
2023/08/05 04:24:21;;;;;;;9.15;4.07;;;;;;;11.84;100.00;100823.63;4938109;29;20123;-62
2023/08/05 04:26:51;;;;;;;15.75;4.90;;;;;;;11.81;100.00;100832.03;4938330;29;20484;-63
2023/08/05 04:29:22;;;;;;;8.60;4.03;;;;;;;11.86;100.00;100835.91;4938833;29;20055;-62
2023/08/05 04:31:50;;;;;;;11.60;4.35;;;;;;;11.92;100.00;100835.22;4938638;29;20051;-62
2023/08/05 04:34:17;;;;;;;7.15;3.53;;;;;;;11.89;100.00;100834.72;4938905;29;20070;-62
2023/08/05 04:36:49;;;;;;;10.13;4.05;;;;;;;11.92;100.00;100845.97;4938220;29;20107;-63
2023/08/05 04:39:20;;;;;;;9.52;3.88;;;;;;;11.96;100.00;100843.81;4938760;28;20047;-62
2023/08/05 04:41:46;;;;;;;7.22;3.67;;;;;;;12.02;100.00;100845.00;4938692;28;20047;-62
2023/08/05 04:44:13;;;;;;;9.85;4.60;;;;;;;11.99;100.00;100842.63;4938466;28;20114;-62
2023/08/05 04:46:40;;;;;;;9.45;3.83;;;;;;;12.07;100.00;100848.88;4938586;28;20047;-61
2023/08/05 04:49:10;;;;;;;9.98;3.95;;;;;;;12.10;100.00;100851.19;4937441;28;20074;-62
2023/08/05 04:51:36;;;;;;;9.60;4.00;;;;;;;12.13;100.00;100852.72;4938467;28;20094;-61
2023/08/05 04:54:04;;;;;;;10.90;3.90;;;;;;;12.13;100.00;100850.03;4938373;28;20079;-62
2023/08/05 04:56:30;;;;;;;11.45;3.78;;;;;;;12.13;100.00;100844.66;4938687;28;20051;-62
2023/08/05 04:58:57;;;;;;;11.98;4.20;;;;;;;12.19;100.00;100841.31;4938478;28;20595;-62
2023/08/05 05:01:23;;;;;;;11.48;4.00;;;;;;;12.34;100.00;100830.69;4939232;28;20460;-56
2023/08/05 05:03:51;;;;;;;11.45;4.03;;;;;;;12.38;100.00;100835.59;4938915;28;20126;-56
2023/08/05 05:06:18;;;;;;;12.07;4.18;;;;;;;12.44;100.00;100834.06;4938683;28;20408;-57
2023/08/05 05:08:45;;;;;;;17.80;8.80;;;;;;;12.62;100.00;100832.00;4938834;28;20055;-55
2023/08/05 05:11:12;;;;;;;11.98;3.83;;;;;;;12.61;100.00;100840.25;4938786;28;20099;-57
2023/08/05 05:13:38;;;;;;;12.85;3.97;;;;;;;12.61;100.00;100851.88;4938692;28;20054;-57
2023/08/05 05:16:05;;;;;;;16.17;3.47;;;;;;;12.59;100.00;100858.41;4938695;28;20421;-57
2023/08/05 05:18:32;;;;;;;13.18;3.75;;;;;;;12.65;100.00;100866.66;4938499;28;20075;-57
2023/08/05 05:20:58;;;;;;;16.23;4.18;;;;;;;12.65;100.00;100865.81;4938604;28;20044;-58
2023/08/05 05:23:25;;;;;;;8.63;3.90;;;;;;;12.61;100.00;100867.19;4938956;28;20047;-57
2023/08/05 05:25:51;;;;;;;9.77;3.47;;;;;;;12.62;100.00;100868.84;4938787;28;20114;-57
2023/08/05 05:28:18;;;;;;;8.15;3.42;;;;;;;12.68;100.00;100868.19;4934969;28;20381;-57
2023/08/05 05:30:44;;;;;;;11.73;3.67;;;;;;;12.77;100.00;100863.66;4935279;28;20055;-57
2023/08/05 05:33:11;;;;;;;10.77;3.60;;;;;;;12.64;100.00;100866.84;4935727;28;20052;-57
2023/08/05 05:35:38;;;;;;;17.38;4.13;;;;;;;12.59;100.00;100866.50;4935943;28;20044;-58
2023/08/05 05:38:04;;;;;;;10.13;3.90;;;;;;;12.54;100.00;100864.31;4935495;28;20119;-57
2023/08/05 05:40:31;;;;;;;10.23;4.45;;;;;;;12.55;100.00;100875.94;4918374;29;20051;-56
2023/08/05 05:42:58;;;;;;;8.00;3.78;;;;;;;12.56;100.00;100866.84;4935330;29;20511;-57
2023/08/05 05:45:24;;;;;;;13.55;3.97;;;;;;;12.65;100.00;100863.13;4935000;29;20559;-57
2023/08/05 05:47:50;;;;;;;11.50;3.40;;;;;;;12.69;100.00;100874.41;4935665;29;20524;-55
2023/08/05 05:50:19;;;;;;;12.00;3.75;;;;;;;12.72;100.00;100869.50;4935625;29;20127;-57
2023/08/05 05:52:48;;;;;;;7.47;3.10;;;;;;;12.77;100.00;100866.34;4935150;29;20484;-56
2023/08/05 05:55:15;;;;;;;10.07;3.33;;;;;;;12.80;100.00;100861.47;4934966;29;20115;-56
2023/08/05 05:57:42;;;;;;;10.88;3.85;;;;;;;12.82;100.00;100864.81;4934748;29;20040;-57
2023/08/05 06:00:09;;;;;;;8.70;3.28;;;;;;;12.92;100.00;100869.19;4935009;29;20496;-56
2023/08/05 06:02:35;;;;;;;6.95;3.17;;;;;;;13.02;100.00;100862.59;4934998;29;20048;-59
2023/08/05 06:05:02;;;;;;;4.60;2.78;;;;;;;13.10;100.00;100854.47;4934776;29;20047;-57
2023/08/05 06:07:29;;;;;;;14.23;2.97;;;;;;;13.17;100.00;100856.47;4934836;29;20063;-58
2023/08/05 06:09:56;;;;;;;13.65;3.63;;;;;;;13.38;100.00;100856.72;4934456;29;20099;-57
2023/08/05 06:12:27;;;;;;;9.32;3.35;;;;;;;13.51;100.00;100864.25;4934727;29;20079;-61
2023/08/05 06:14:55;;;;;;;12.73;3.20;;;;;;;13.56;100.00;100870.81;4933884;29;20043;-56
2023/08/05 06:17:22;;;;;;;8.63;2.97;;;;;;;13.70;100.00;100863.81;4934197;29;20067;-57
2023/08/05 06:19:49;;;;;;;8.82;3.13;;;;;;;13.70;100.00;100853.03;4934687;29;20048;-57
2023/08/05 06:22:15;;;;;;;9.63;3.15;;;;;;;13.73;100.00;100858.03;4934508;29;20072;-58
2023/08/05 06:24:42;;;;;;;11.07;2.90;;;;;;;13.79;100.00;100861.94;4934827;29;20483;-58
2023/08/05 06:27:09;;;;;;;6.78;2.75;;;;;;;13.85;100.00;100860.38;4934325;29;20198;-56
2023/08/05 06:29:35;;;;;;;9.57;3.03;;;;;;;14.00;100.00;100858.59;4941186;29;20039;-57
2023/08/05 06:32:04;;;;;;;11.52;3.17;;;;;;;13.98;100.00;100861.47;4953280;29;20533;-57
2023/08/05 06:34:31;;;;;;;5.38;2.65;;;;;;;14.08;100.00;100863.06;4946813;29;20047;-57
2023/08/05 06:36:57;;;;;;;9.15;2.92;;;;;;;14.19;100.00;100862.69;4934524;29;20060;-57
2023/08/05 06:39:24;;;;;;;12.88;2.90;;;;;;;14.28;100.00;100870.50;4933166;28;20143;-56
2023/08/05 06:41:51;;;;;;;15.40;2.97;;;;;;;14.34;100.00;100866.25;4934843;28;20109;-56
2023/08/05 06:44:18;;;;;;;9.63;2.70;;;;;;;14.57;100.00;100868.94;4934616;28;20054;-55
2023/08/05 06:46:45;;;;;;;5.95;2.75;;;;;;;14.53;100.00;100868.47;4934334;28;20048;-56
2023/08/05 06:49:11;;;;;;;14.95;3.10;;;;;;;14.52;100.00;100871.31;4934779;28;20075;-56
2023/08/05 06:51:38;;;;;;;7.35;3.20;;;;;;;14.52;100.00;100874.03;4934513;28;20082;-57
2023/08/05 06:54:05;;;;;;;10.38;2.72;;;;;;;14.57;100.00;100874.34;4934576;28;20503;-57
2023/08/05 06:56:32;;;;;;;8.02;3.33;;;;;;;14.52;100.00;100874.03;4934321;28;20500;-56
2023/08/05 06:58:58;;;;;;;13.90;3.20;;;;;;;14.61;100.00;100866.69;4934132;28;20055;-56
2023/08/05 07:01:25;;;;;;;5.68;2.80;;;;;;;14.72;100.00;100864.41;4933894;28;20048;-56
2023/08/05 07:03:52;;;;;;;9.00;3.22;;;;;;;14.82;100.00;100864.16;4934143;28;20122;-56
2023/08/05 07:06:18;;;;;;;5.15;2.38;;;;;;;14.87;100.00;100866.28;4933875;28;20134;-57
2023/08/05 07:08:45;;;;;;;8.20;3.20;;;;;;;14.87;100.00;100855.50;4934376;29;20106;-56
2023/08/05 07:11:12;;;;;;;6.07;2.15;;;;;;;14.68;100.00;100851.44;4952814;29;20055;-56
2023/08/05 07:13:38;;;;;;;5.80;2.28;;;;;;;14.96;100.00;100848.97;4952764;29;20492;-57
2023/08/05 07:16:05;;;;;;;6.28;2.40;;;;;;;15.03;100.00;100846.38;4953087;29;20059;-56
2023/08/05 07:18:32;;;;;;;6.03;2.83;;;;;;;15.01;100.00;100851.94;4952481;29;20473;-57
2023/08/05 07:20:58;;;;;;;7.13;2.90;;;;;;;15.08;100.00;100844.78;4952696;29;20106;-56
2023/08/05 07:23:27;;;;;;;6.55;2.70;;;;;;;15.14;100.00;100844.03;4952993;29;20051;-59
2023/08/05 07:25:54;;;;;;;5.80;2.63;;;;;;;15.14;100.00;100840.50;4952572;29;20483;-56
2023/08/05 07:28:20;;;;;;;11.55;3.15;;;;;;;15.07;100.00;100847.69;4953040;29;20556;-56
2023/08/05 07:30:48;;;;;;;8.25;2.67;;;;;;;15.34;100.00;100855.13;4952133;29;20051;-57
2023/08/05 07:33:16;;;;;;;11.80;3.10;;;;;;;15.17;100.00;100851.75;4952449;29;20114;-56
2023/08/05 07:35:43;;;;;;;8.65;3.08;;;;;;;15.19;100.00;100849.72;4951935;29;20574;-57
2023/08/05 07:38:09;;;;;;;11.82;3.00;;;;;;;15.11;100.00;100847.09;4949269;28;20047;-57
2023/08/05 07:40:41;;;;;;;12.18;3.00;;;;;;;14.87;100.00;100856.31;4933739;28;20460;-58
2023/08/05 07:43:09;;;;;;;9.88;2.53;;;;;;;14.70;100.00;100855.66;4933268;28;20059;-57
2023/08/05 07:45:35;;;;;;;11.48;2.50;;;;;;;14.56;100.00;100852.91;4933076;28;20047;-57
2023/08/05 07:48:06;;;;;;;5.82;2.63;;;;;;;14.45;100.00;100857.72;4933482;28;20055;-56
2023/08/05 07:50:34;;;;;;;10.67;3.33;;;;;;;14.67;100.00;100847.91;4933273;28;20106;-56
2023/08/05 07:53:03;;;;;;;12.57;3.03;;;;;;;14.63;100.00;100841.19;4932287;28;20103;-57
2023/08/05 07:55:32;;;;;;;9.50;2.80;;;;;;;14.77;100.00;100848.50;4932805;28;20048;-57
2023/08/05 07:57:58;;;;;;;10.95;3.63;;;;;;;14.82;100.00;100844.41;4933177;28;20416;-57
2023/08/05 08:00:27;;;;;;;8.30;2.72;;;;;;;15.08;100.00;100839.38;4933505;28;20059;-58
2023/08/05 08:02:53;;;;;;;10.35;2.70;;;;;;;15.16;100.00;100842.00;4933439;28;20099;-57
2023/08/05 08:05:21;;;;;;;8.65;2.97;;;;;;;15.26;100.00;100841.72;4933544;28;20151;-56
2023/08/05 08:07:47;;;;;;;11.10;3.53;;;;;;;15.33;100.00;100839.94;4932468;28;20460;-57
2023/08/05 08:10:14;;;;;;;14.52;2.88;;;;;;;15.33;100.00;100839.06;4932982;28;20175;-56
2023/08/05 08:12:43;;;;;;;10.13;3.42;;;;;;;15.37;100.00;100830.41;4932509;28;20396;-58
2023/08/05 08:15:10;;;;;;;9.23;2.90;;;;;;;15.54;100.00;100831.03;4933137;28;20066;-58
2023/08/05 08:17:36;;;;;;;10.73;3.45;;;;;;;15.52;100.00;100835.78;4932358;28;20055;-58
2023/08/05 08:20:06;;;;;;;6.60;2.63;;;;;;;15.44;100.00;100833.19;4933095;28;20048;-56
2023/08/05 08:22:33;;;;;;;11.02;2.92;;;;;;;15.40;100.00;100831.91;4932996;28;20126;-57
2023/08/05 08:25:02;;;;;;;9.38;2.53;;;;;;;15.70;100.00;100836.22;4932728;28;20056;-56
2023/08/05 08:27:29;;;;;;;9.43;2.67;;;;;;;15.95;100.00;100842.13;4932347;28;20423;-59
2023/08/05 08:29:55;;;;;;;9.57;2.88;;;;;;;16.02;100.00;100839.50;4931838;28;20052;-57
2023/08/05 08:32:22;;;;;;;8.95;2.22;;;;;;;16.06;100.00;100840.78;4932802;28;20122;-57
2023/08/05 08:34:48;;;;;;;6.55;2.67;;;;;;;15.84;100.00;100842.59;4932461;28;20044;-56
2023/08/05 08:37:15;;;;;;;9.18;2.42;;;;;;;15.75;100.00;100840.25;4932320;28;20063;-56
2023/08/05 08:39:42;;;;;;;9.55;2.92;;;;;;;15.67;100.00;100841.16;4932578;28;20048;-58
2023/08/05 08:42:08;;;;;;;11.80;2.53;;;;;;;15.91;100.00;100843.50;4932600;29;20047;-56
2023/08/05 08:44:36;;;;;;;6.03;2.40;;;;;;;16.30;100.00;100847.66;4932508;29;20423;-57
2023/08/05 08:47:04;;;;;;;8.50;3.08;;;;;;;16.31;100.00;100834.94;4932237;29;20103;-57
2023/08/05 08:49:31;;;;;;;10.40;2.72;;;;;;;16.42;100.00;100837.13;4932337;29;20051;-57
2023/08/05 08:51:59;;;;;;;8.10;2.55;;;;;;;16.93;100.00;100842.31;4931959;29;20098;-56
2023/08/05 08:54:29;;;;;;;14.30;2.70;;;;;;;17.36;100.00;100842.13;4932289;29;20079;-57
2023/08/05 08:56:55;;;;;;;8.32;2.67;;;;;;;18.22;100.00;100845.09;4932297;29;20048;-56
2023/08/05 08:59:22;;;;;;;9.07;2.67;;;;;;;18.08;100.00;100844.22;4932443;29;20048;-57
2023/08/05 09:01:51;;;;;;;7.55;2.72;;;;;;;18.19;100.00;100831.09;4931769;29;20047;-57
2023/08/05 09:04:18;;;;;;;7.03;2.80;;;;;;;18.43;100.00;100835.06;4935994;29;20070;-56
2023/08/05 09:06:48;;;;;;;6.28;2.20;;;;;;;18.72;100.00;100826.50;4935690;29;20054;-56
2023/08/05 09:09:15;;;;;;;7.35;2.70;;;;;;;17.16;100.00;100819.47;4935941;29;20476;-56
2023/08/05 09:11:42;;;;;;;2.88;1.73;;;;;;;17.02;100.00;100824.00;4935586;29;20130;-58
2023/08/05 09:14:08;;;;;;;6.20;2.40;;;;;;;17.19;100.00;100813.66;4935765;29;20535;-56
2023/08/05 09:16:56;;;;;;;6.00;2.40;;;;;;;17.46;100.00;100815.47;4935533;29;20047;-58
2023/08/05 09:19:25;;;;;;;11.02;2.40;;;;;;;17.87;100.00;100821.84;4934703;29;20075;-56
2023/08/05 09:21:54;;;;;;;9.63;2.45;;;;;;;17.84;100.00;100828.50;4934953;29;20040;-56
2023/08/05 09:24:24;;;;;;;7.30;2.35;;;;;;;17.70;100.00;100824.09;4935014;29;20083;-56
2023/08/05 09:26:59;;;;;;;9.63;2.63;;;;;;;17.99;100.00;100821.00;4935224;29;20409;-56
2023/08/05 09:29:27;;;;;;;8.25;2.28;;;;;;;18.30;100.00;100830.47;4934249;29;20110;-57
2023/08/05 09:31:57;;;;;;;7.65;2.67;;;;;;;18.38;100.00;100827.56;4933870;29;20047;-57
2023/08/05 09:34:33;;;;;;;6.80;2.55;;;;;;;18.48;100.00;100825.25;4935044;29;20048;-58
2023/08/05 09:37:00;;;;;;;6.65;2.35;;;;;;;18.79;100.00;100815.56;4934353;29;20073;-57
2023/08/05 09:39:51;;;;;;;6.28;2.03;;;;;;;18.96;100.00;100811.38;4934609;28;20047;-56
2023/08/05 09:42:21;;;;;;;4.60;1.90;;;;;;;19.41;100.00;100813.31;4934890;28;20075;-56
2023/08/05 09:44:48;;;;;;;8.75;2.47;;;;;;;20.27;100.00;100814.69;4934510;28;20511;-57
2023/08/05 09:47:20;;;;;;;8.23;2.50;;;;;;;20.56;100.00;100799.56;4934732;28;20086;-57
2023/08/05 09:49:49;;;;;;;6.72;2.30;;;;;;;20.64;92.61;100797.38;4934270;28;20054;-56
2023/08/05 09:52:18;;;;;;;8.50;2.20;;;;;;;21.07;86.02;100801.09;4934299;28;20214;-57
2023/08/05 09:54:51;;;;;;;3.95;2.17;;;;;;;19.84;92.69;100797.19;4953580;29;20055;-57
2023/08/05 09:57:20;;;;;;;4.05;1.50;;;;;;;20.24;89.43;100787.88;4953687;29;20067;-57
2023/08/05 09:59:47;;;;;;;7.63;2.10;;;;;;;19.76;94.48;100786.56;4953460;29;20047;-55
2023/08/05 10:02:22;;;;;;;6.28;1.95;;;;;;;20.11;95.89;100784.22;4952370;29;20558;-56
2023/08/05 10:04:51;;;;;;;6.95;2.03;;;;;;;19.23;100.00;100775.94;4963418;29;20065;-63
2023/08/05 10:07:19;;;;;;;3.35;1.85;;;;;;;18.98;100.00;100764.97;4965217;29;20047;-63
2023/08/05 10:09:45;;;;;;;7.05;1.98;;;;;;;18.91;100.00;100769.56;4964754;29;20055;-62
2023/08/05 10:12:13;;;;;;;5.10;2.10;;;;;;;18.27;100.00;100761.13;4967485;29;20047;-64
2023/08/05 10:14:41;;;;;;;9.48;2.38;;;;;;;18.23;100.00;100756.31;4965862;28;20075;-64
2023/08/05 10:17:08;;;;;;;7.38;2.20;;;;;;;18.05;100.00;100759.63;4967362;29;20051;-63
2023/08/05 10:19:35;;;;;;;5.10;2.20;;;;;;;18.57;100.00;100757.94;4968105;29;20043;-63
2023/08/05 10:22:11;;;;;;;10.00;2.30;;;;;;;18.85;100.00;100754.94;4967609;29;20059;-62
2023/08/05 10:24:56;;;;;;;4.55;2.35;;;;;;;18.56;100.00;100778.03;4966063;29;20054;-63
2023/08/05 10:27:39;;;;;;;8.63;2.22;;;;;;;18.78;100.00;100781.31;4966110;29;20055;-58
2023/08/05 10:30:10;;;;;;;6.30;2.13;;;;;;;19.12;100.00;100788.34;4964342;29;20091;-63
2023/08/05 10:32:53;;;;;;;6.93;2.03;;;;;;;19.45;100.00;100788.19;4965554;29;20051;-61
2023/08/05 10:35:48;;;;;;;12.80;7.25;;;;;;;19.57;100.00;100773.91;4966579;29;20047;-64
2023/08/05 10:38:20;;;;;;;6.47;2.30;;;;;;;19.31;100.00;100773.00;4960622;28;20047;-63
2023/08/05 10:41:00;;;;;;;5.82;2.45;;;;;;;18.92;100.00;100779.38;4947749;28;20055;-62
2023/08/05 10:43:33;;;;;;;5.05;1.80;;;;;;;18.96;100.00;100773.31;4946893;28;20048;-61
2023/08/05 10:46:08;;;;;;;6.78;2.30;;;;;;;19.00;99.50;100769.16;4946218;28;20055;-63
2023/08/05 10:48:43;;;;;;;4.90;1.73;;;;;;;19.01;100.00;100768.09;4946774;28;20040;-61
2023/08/05 10:51:20;;;;;;;7.15;2.65;;;;;;;19.50;97.07;100758.44;4946166;28;20054;-63
2023/08/05 10:53:53;;;;;;;3.72;1.77;;;;;;;19.89;83.55;100761.97;4943525;28;20097;-64
2023/08/05 10:56:31;;;;;;;5.03;2.10;;;;;;;20.78;74.07;100759.09;4951297;28;20047;-64
2023/08/05 10:59:02;;;;;;;5.82;1.80;;;;;;;20.65;71.94;100749.16;4966642;28;20066;-63
2023/08/05 11:01:58;;;;;;;8.65;1.73;;;;;;;20.67;77.24;100747.88;4966489;29;20051;-61
2023/08/05 11:04:28;;;;;;;5.50;2.13;;;;;;;20.70;79.51;100748.47;4965743;29;20091;-64
2023/08/05 11:06:56;;;;;;;4.68;1.70;;;;;;;20.79;77.82;100739.75;4966003;29;20039;-63
2023/08/05 11:09:22;;;;;;;5.60;2.00;;;;;;;20.39;78.62;100734.72;4966424;29;20051;-64
2023/08/05 11:11:49;;;;;;;6.70;1.77;;;;;;;20.08;84.41;100732.09;4964780;29;20105;-63
2023/08/05 11:14:19;;;;;;;6.15;1.83;;;;;;;20.05;88.04;100722.47;4964927;29;20047;-62
2023/08/05 11:16:46;;;;;;;6.15;1.52;;;;;;;20.05;86.73;100721.63;4965079;29;20062;-62
2023/08/05 11:19:15;;;;;;;3.92;2.05;;;;;;;19.61;84.73;100721.53;4964607;29;20051;-63
2023/08/05 11:21:45;;;;;;;7.15;1.90;;;;;;;19.79;90.20;100723.50;4965016;29;20062;-64
2023/08/05 11:24:18;;;;;;;7.95;2.20;;;;;;;20.07;84.14;100717.63;4964210;28;20054;-64